Garnett, South Carolina
Current Conditions -  °F | °C
As of 11:15 AM on Wednesday 26 Nov 2014 (Local Time) from KJYL Reporting Station
Overcast Overcast  
Wind Chill: 51°   Ceiling: 800
Heat Index: 51°   Visibility: 10mi
Dew Point: 50°   Wind: 7mph
Humidity: 95%   Direction: 290°WNW
Pressure: 30.08"   Gusts: NA
Location:  32.61°N, 81.24°W
Report Text: KJYL 261615Z AUTO 29006KT 10SM BKN008 OVC014 11/10 A3008 RMK AO2 T01080100
Loading
Personal Weather Stations






























Interactive Weather Map New forecast layout! Learn more

10-Day Weather Forecast

Advertisements
Track Severe Weather on mobile